Time,TemperatureF,DewpointF,PressureIn,WindDirection,WindDirectionDegrees,WindSpeedMPH,WindSpeedGustMPH,Humidity,HourlyPrecipIn,Conditions,Clouds,dailyrainin,SoftwareType,DateUTC
2013-04-16 00:02:00,27.9,27.4,29.35,SE,135,0.0,-999.0,98,-99.99,,,0.00,Acu-Link.com,2013-04-16 06:02:00,
2013-04-16 00:18:00,27.9,27.4,29.35,South,180,0.0,-999.0,98,-99.99,,,0.00,Acu-Link.com,2013-04-16 06:18:00,
2013-04-16 00:33:00,27.9,27.4,29.36,East,90,0.0,-999.0,98,-99.99,,,0.00,Acu-Link.com,2013-04-16 06:33:00,
2013-04-16 00:48:00,27.9,27.4,29.36,West,270,0.0,-999.0,98,-99.99,,,0.00,Acu-Link.com,2013-04-16 06:48:00,
2013-04-16 01:04:00,27.9,27.4,29.36,SW,225,0.0,-999.0,98,-99.99,,,0.00,Acu-Link.com,2013-04-16 07:04:00,
2013-04-16 01:19:00,27.3,26.8,29.36,SW,225,0.0,-999.0,98,-99.99,,,0.00,Acu-Link.com,2013-04-16 07:19:00,
2013-04-16 01:34:00,27.0,26.5,29.36,WNW,292,0.0,-999.0,98,-99.99,,,0.00,Acu-Link.com,2013-04-16 07:34:00,
2013-04-16 01:49:00,26.4,25.9,29.37,SW,225,0.0,-999.0,98,-99.99,,,0.00,Acu-Link.com,2013-04-16 07:49:00,
2013-04-16 02:04:00,25.0,24.5,29.37,NE,45,1.1,-999.0,98,-99.99,,,0.00,Acu-Link.com,2013-04-16 08:04:00,
2013-04-16 02:20:00,24.1,23.6,29.36,NNE,22,0.0,-999.0,98,-99.99,,,0.00,Acu-Link.com,2013-04-16 08:20:00,
2013-04-16 02:35:00,24.6,24.1,29.37,NE,45,2.2,-999.0,98,-99.99,,,0.00,Acu-Link.com,2013-04-16 08:35:00,
2013-04-16 02:50:00,25.5,25.0,29.36,NE,45,1.7,-999.0,98,-99.99,,,0.00,Acu-Link.com,2013-04-16 08:50:00,
2013-04-16 03:05:00,25.3,24.8,29.37,NNE,22,2.2,-999.0,98,-99.99,,,0.00,Acu-Link.com,2013-04-16 09:05:00,
2013-04-16 03:20:00,25.7,25.2,29.38,WNW,292,0.0,-999.0,98,-99.99,,,0.00,Acu-Link.com,2013-04-16 09:20:00,
2013-04-16 03:36:00,24.3,23.8,29.38,West,270,0.0,-999.0,98,-99.99,,,0.00,Acu-Link.com,2013-04-16 09:36:00,
2013-04-16 03:51:00,23.2,22.7,29.38,ESE,112,0.0,-999.0,98,-99.99,,,0.00,Acu-Link.com,2013-04-16 09:51:00,
2013-04-16 04:06:00,22.6,22.1,29.39,WSW,247,0.0,-999.0,98,-99.99,,,0.00,Acu-Link.com,2013-04-16 10:06:00,
2013-04-16 04:22:00,22.1,21.6,29.38,NNE,22,0.0,-999.0,98,-99.99,,,0.00,Acu-Link.com,2013-04-16 10:22:00,
2013-04-16 04:37:00,22.1,21.6,29.39,NNE,22,0.0,-999.0,98,-99.99,,,0.00,Acu-Link.com,2013-04-16 10:37:00,
2013-04-16 04:52:00,22.3,21.8,29.39,NNE,22,2.7,-999.0,98,-99.99,,,0.00,Acu-Link.com,2013-04-16 10:52:00,
2013-04-16 05:07:00,23.0,22.5,29.39,NNW,337,0.0,-999.0,98,-99.99,,,0.00,Acu-Link.com,2013-04-16 11:07:00,
2013-04-16 05:23:00,22.6,22.1,29.39,NE,45,0.0,-999.0,98,-99.99,,,0.00,Acu-Link.com,2013-04-16 11:23:00,
2013-04-16 05:38:00,22.3,21.8,29.39,NNW,337,0.0,-999.0,98,-99.99,,,0.00,Acu-Link.com,2013-04-16 11:38:00,
2013-04-16 05:53:00,22.1,21.6,29.39,WNW,292,0.0,-999.0,98,-99.99,,,0.00,Acu-Link.com,2013-04-16 11:53:00,
2013-04-16 06:09:00,23.0,22.5,29.39,SW,225,0.0,-999.0,98,-99.99,,,0.00,Acu-Link.com,2013-04-16 12:09:00,
2013-04-16 06:24:00,23.4,22.9,29.39,SSW,202,2.2,-999.0,98,-99.99,,,0.00,Acu-Link.com,2013-04-16 12:24:00,
2013-04-16 06:39:00,23.7,23.2,29.40,SW,225,1.1,-999.0,98,-99.99,,,0.00,Acu-Link.com,2013-04-16 12:39:00,
2013-04-16 06:54:00,24.6,24.1,29.40,West,270,1.7,-999.0,98,-99.99,,,0.00,Acu-Link.com,2013-04-16 12:54:00,
2013-04-16 07:09:00,25.9,25.4,29.40,SW,225,2.2,-999.0,98,-99.99,,,0.00,Acu-Link.com,2013-04-16 13:09:00,
2013-04-16 07:25:00,27.7,27.2,29.40,South,180,2.2,-999.0,98,-99.99,,,0.00,Acu-Link.com,2013-04-16 13:25:00,
2013-04-16 07:40:00,30.2,29.7,29.41,South,180,4.7,-999.0,98,-99.99,,,0.00,Acu-Link.com,2013-04-16 13:40:00,
2013-04-16 07:55:00,33.1,32.6,29.42,SW,225,1.1,-999.0,98,-99.99,,,0.00,Acu-Link.com,2013-04-16 13:55:00,
2013-04-16 08:10:00,37.8,34.3,29.41,NNW,337,2.7,-999.0,87,-99.99,,,0.00,Acu-Link.com,2013-04-16 14:10:00,
2013-04-16 08:41:00,43.7,33.5,29.40,NW,315,4.7,-999.0,67,-99.99,,,0.01,Acu-Link.com,2013-04-16 14:41:00,
2013-04-16 08:56:00,45.7,33.0,29.40,North,0,3.2,-999.0,61,-99.99,,,0.01,Acu-Link.com,2013-04-16 14:56:00,
2013-04-16 09:11:00,48.7,31.4,29.39,SW,225,4.7,-999.0,51,-99.99,,,0.01,Acu-Link.com,2013-04-16 15:11:00,
2013-04-16 09:26:00,51.4,32.4,29.38,SW,225,5.3,-999.0,48,-99.99,,,0.01,Acu-Link.com,2013-04-16 15:26:00,
2013-04-16 09:41:00,51.4,27.9,29.37,SSW,202,10.4,-999.0,40,-99.99,,,0.01,Acu-Link.com,2013-04-16 15:41:00,
2013-04-16 09:57:00,52.2,27.4,29.36,South,180,14.5,-999.0,38,-99.99,,,0.01,Acu-Link.com,2013-04-16 15:57:00,
2013-04-16 10:12:00,53.1,27.5,29.35,South,180,14.0,-999.0,37,-99.99,,,0.01,Acu-Link.com,2013-04-16 16:12:00,
2013-04-16 10:27:00,53.2,27.6,29.35,SSW,202,14.5,-999.0,37,-99.99,,,0.01,Acu-Link.com,2013-04-16 16:27:00,
2013-04-16 10:42:00,53.6,28.0,29.34,SSW,202,17.1,-999.0,37,-99.99,,,0.01,Acu-Link.com,2013-04-16 16:42:00,
2013-04-16 10:58:00,56.1,28.8,29.35,SSW,202,24.3,-999.0,35,-99.99,,,0.01,Acu-Link.com,2013-04-16 16:58:00,
2013-04-16 11:13:00,56.5,27.8,29.33,SSE,157,23.8,-999.0,33,-99.99,,,0.01,Acu-Link.com,2013-04-16 17:13:00,
2013-04-16 11:28:00,56.8,27.3,29.33,SSE,157,25.3,-999.0,32,-99.99,,,0.01,Acu-Link.com,2013-04-16 17:28:00,
2013-04-16 11:43:00,53.2,24.1,29.32,South,180,23.8,-999.0,32,-99.99,,,0.01,Acu-Link.com,2013-04-16 17:43:00,
2013-04-16 11:59:00,59.5,26.4,29.32,South,180,23.3,-999.0,28,-99.99,,,0.01,Acu-Link.com,2013-04-16 17:59:00,
2013-04-16 12:14:00,59.2,27.0,29.32,South,180,21.7,-999.0,29,-99.99,,,0.01,Acu-Link.com,2013-04-16 18:14:00,
2013-04-16 12:29:00,58.5,28.0,29.32,South,180,17.6,-999.0,31,-99.99,,,0.01,Acu-Link.com,2013-04-16 18:29:00,
2013-04-16 12:44:00,59.7,28.2,29.31,South,180,24.8,-999.0,30,-99.99,,,0.01,Acu-Link.com,2013-04-16 18:44:00,
2013-04-16 12:59:00,60.4,28.8,29.30,SSW,202,16.1,-999.0,30,-99.99,,,0.01,Acu-Link.com,2013-04-16 18:59:00,
2013-04-16 13:14:00,60.3,27.1,29.31,SW,225,22.7,-999.0,28,-99.99,,,0.01,Acu-Link.com,2013-04-16 19:14:00,
2013-04-16 13:29:00,62.4,28.9,29.30,South,180,13.5,-999.0,28,-99.99,,,0.01,Acu-Link.com,2013-04-16 19:29:00,
2013-04-16 13:44:00,63.7,29.1,29.29,SSW,202,27.9,-999.0,27,-99.99,,,0.01,Acu-Link.com,2013-04-16 19:44:00,
2013-04-16 13:59:00,59.9,26.7,29.29,SSW,202,23.3,-999.0,28,-99.99,,,0.01,Acu-Link.com,2013-04-16 19:59:00,
2013-04-16 14:14:00,62.1,30.3,29.29,SSW,202,24.3,-999.0,30,-99.99,,,0.01,Acu-Link.com,2013-04-16 20:14:00,
2013-04-16 14:29:00,61.2,28.7,29.29,SSW,202,21.7,-999.0,29,-99.99,,,0.01,Acu-Link.com,2013-04-16 20:29:00,
2013-04-16 14:44:00,62.8,29.2,29.29,SSW,202,13.0,-999.0,28,-99.99,,,0.01,Acu-Link.com,2013-04-16 20:44:00,
2013-04-16 15:00:00,62.6,27.2,29.28,SW,225,16.1,-999.0,26,-99.99,,,0.01,Acu-Link.com,2013-04-16 21:00:00,
2013-04-16 15:15:00,63.3,28.8,29.28,SSW,202,25.8,-999.0,27,-99.99,,,0.01,Acu-Link.com,2013-04-16 21:15:00,
2013-04-16 15:30:00,61.5,24.4,29.27,South,180,21.2,-999.0,24,-99.99,,,0.01,Acu-Link.com,2013-04-16 21:30:00,
2013-04-16 16:01:00,63.5,22.9,29.26,SW,225,11.4,-999.0,21,-99.99,,,0.01,Acu-Link.com,2013-04-16 22:01:00,
2013-04-16 16:16:00,61.9,20.4,29.25,South,180,21.2,-999.0,20,-99.99,,,0.01,Acu-Link.com,2013-04-16 22:16:00,
2013-04-16 16:32:00,61.2,21.0,29.25,WSW,247,10.4,-999.0,21,-99.99,,,0.01,Acu-Link.com,2013-04-16 22:32:00,
2013-04-16 16:47:00,62.1,2.6,29.24,SSW,202,14.5,-999.0,9,-99.99,,,0.01,Acu-Link.com,2013-04-16 22:47:00,
2013-04-16 17:02:00,60.4,18.0,29.24,South,180,18.1,-999.0,19,-99.99,,,0.01,Acu-Link.com,2013-04-16 23:02:00,
2013-04-16 17:17:00,61.0,18.5,29.24,SSE,157,21.7,-999.0,19,-99.99,,,0.01,Acu-Link.com,2013-04-16 23:17:00,
2013-04-16 17:32:00,61.5,-39.9,29.24,South,180,9.4,-999.0,1,-99.99,,,0.01,Acu-Link.com,2013-04-16 23:32:00,
2013-04-16 17:48:00,60.1,18.9,29.25,SSW,202,20.2,-999.0,20,-99.99,,,0.01,Acu-Link.com,2013-04-16 23:48:00,
2013-04-16 18:03:00,58.6,19.9,29.25,West,270,12.5,-999.0,22,-99.99,,,0.01,Acu-Link.com,2013-04-17 00:03:00,
2013-04-16 18:18:00,57.6,19.0,29.25,SSW,202,18.6,-999.0,22,-99.99,,,0.01,Acu-Link.com,2013-04-17 00:18:00,
2013-04-16 18:33:00,57.4,17.8,29.27,SW,225,10.9,-999.0,21,-99.99,,,0.01,Acu-Link.com,2013-04-17 00:33:00,
2013-04-16 18:48:00,55.8,19.6,29.26,SW,225,7.3,-999.0,24,-99.99,,,0.01,Acu-Link.com,2013-04-17 00:48:00,
2013-04-16 19:03:00,54.5,22.9,29.28,ESE,112,4.2,-999.0,29,-99.99,,,0.01,Acu-Link.com,2013-04-17 01:03:00,
2013-04-16 19:18:00,53.2,24.9,29.29,SW,225,4.2,-999.0,33,-99.99,,,0.01,Acu-Link.com,2013-04-17 01:18:00,
2013-04-16 19:34:00,51.6,26.2,29.29,SSW,202,3.7,-999.0,37,-99.99,,,0.01,Acu-Link.com,2013-04-17 01:34:00,
2013-04-16 19:49:00,50.7,26.7,29.30,SW,225,3.2,-999.0,39,-99.99,,,0.01,Acu-Link.com,2013-04-17 01:49:00,
2013-04-16 20:04:00,48.0,30.3,29.30,WNW,292,5.3,-999.0,50,-99.99,,,0.01,Acu-Link.com,2013-04-17 02:04:00,
2013-04-16 20:19:00,47.3,29.1,29.31,SSW,202,3.7,-999.0,49,-99.99,,,0.01,Acu-Link.com,2013-04-17 02:19:00,
2013-04-16 20:34:00,45.7,29.6,29.33,SSW,202,4.7,-999.0,53,-99.99,,,0.01,Acu-Link.com,2013-04-17 02:34:00,
2013-04-16 20:49:00,45.7,30.0,29.35,SW,225,5.3,-999.0,54,-99.99,,,0.01,Acu-Link.com,2013-04-17 02:49:00,
2013-04-16 21:04:00,45.0,29.8,29.36,South,180,4.2,-999.0,55,-99.99,,,0.01,Acu-Link.com,2013-04-17 03:04:00,
2013-04-16 21:19:00,43.7,30.7,29.38,South,180,8.9,-999.0,60,-99.99,,,0.01,Acu-Link.com,2013-04-17 03:19:00,
2013-04-16 21:34:00,41.4,31.3,29.39,SSW,202,6.8,-999.0,67,-99.99,,,0.01,Acu-Link.com,2013-04-17 03:34:00,
2013-04-16 21:50:00,40.3,31.3,29.39,South,180,5.8,-999.0,70,-99.99,,,0.01,Acu-Link.com,2013-04-17 03:50:00,
2013-04-16 22:05:00,39.7,30.7,29.40,West,270,2.2,-999.0,70,-99.99,,,0.01,Acu-Link.com,2013-04-17 04:05:00,
2013-04-16 22:20:00,38.5,30.9,29.40,SW,225,5.3,-999.0,74,-99.99,,,0.01,Acu-Link.com,2013-04-17 04:20:00,
2013-04-16 22:36:00,38.5,30.9,29.41,West,270,2.7,-999.0,74,-99.99,,,0.01,Acu-Link.com,2013-04-17 04:36:00,
2013-04-16 22:51:00,38.1,30.6,29.41,SW,225,3.2,-999.0,74,-99.99,,,0.01,Acu-Link.com,2013-04-17 04:51:00,
2013-04-16 23:06:00,37.6,30.7,29.41,WSW,247,2.7,-999.0,76,-99.99,,,0.01,Acu-Link.com,2013-04-17 05:06:00,
2013-04-16 23:22:00,37.4,30.5,29.41,SW,225,2.7,-999.0,76,-99.99,,,0.01,Acu-Link.com,2013-04-17 05:22:00,
2013-04-16 23:37:00,37.0,30.8,29.41,South,180,2.2,-999.0,78,-99.99,,,0.01,Acu-Link.com,2013-04-17 05:37:00,
2013-04-16 23:52:00,36.0,30.7,29.42,SW,225,2.7,-999.0,81,-99.99,,,0.01,Acu-Link.com,2013-04-17 05:52:00,